sensor_id;sensor_type;location;lat;lon;timestamp;pressure;altitude;pressure_sealevel;temperature;humidity
4745;BME280;2386;42.138;24.746;2022-10-18T00:01:25;101283.81;;;10.32;92.66
4745;BME280;2386;42.138;24.746;2022-10-18T00:03:51;101294.34;;;10.41;93.04
4745;BME280;2386;42.138;24.746;2022-10-18T00:06:16;101276.59;;;10.24;91.90
4745;BME280;2386;42.138;24.746;2022-10-18T00:08:42;101289.31;;;10.38;91.82
4745;BME280;2386;42.138;24.746;2022-10-18T00:11:07;101282.41;;;10.21;90.89
4745;BME280;2386;42.138;24.746;2022-10-18T00:13:33;101274.13;;;10.14;92.04
4745;BME280;2386;42.138;24.746;2022-10-18T00:16:01;101271.91;;;10.18;92.36
4745;BME280;2386;42.138;24.746;2022-10-18T00:18:27;101275.16;;;10.13;93.60
4745;BME280;2386;42.138;24.746;2022-10-18T00:21:04;101276.47;;;10.17;93.25
4745;BME280;2386;42.138;24.746;2022-10-18T00:23:31;101257.03;;;9.99;94.49
4745;BME280;2386;42.138;24.746;2022-10-18T00:26:08;101269.38;;;10.16;94.34
4745;BME280;2386;42.138;24.746;2022-10-18T00:28:34;101255.91;;;10.08;91.64
4745;BME280;2386;42.138;24.746;2022-10-18T00:31:18;101250.78;;;10.28;91.25
4745;BME280;2386;42.138;24.746;2022-10-18T00:33:46;101251.13;;;10.10;87.84
4745;BME280;2386;42.138;24.746;2022-10-18T00:36:12;101252.00;;;10.26;87.26
4745;BME280;2386;42.138;24.746;2022-10-18T00:38:39;101262.19;;;10.38;86.69
4745;BME280;2386;42.138;24.746;2022-10-18T00:41:06;101263.50;;;10.28;86.23
4745;BME280;2386;42.138;24.746;2022-10-18T00:43:48;101255.84;;;10.31;87.08
4745;BME280;2386;42.138;24.746;2022-10-18T00:46:14;101247.03;;;10.29;86.75
4745;BME280;2386;42.138;24.746;2022-10-18T00:48:39;101260.59;;;10.29;85.30
4745;BME280;2386;42.138;24.746;2022-10-18T00:51:05;101255.81;;;10.02;86.84
4745;BME280;2386;42.138;24.746;2022-10-18T00:53:30;101264.31;;;10.13;86.23
4745;BME280;2386;42.138;24.746;2022-10-18T00:55:56;101252.81;;;9.97;85.68
4745;BME280;2386;42.138;24.746;2022-10-18T00:58:21;101236.63;;;9.74;87.13
4745;BME280;2386;42.138;24.746;2022-10-18T01:00:47;101253.84;;;9.81;87.91
4745;BME280;2386;42.138;24.746;2022-10-18T01:03:12;101246.00;;;9.86;88.96
4745;BME280;2386;42.138;24.746;2022-10-18T01:05:42;101251.41;;;10.01;89.53
4745;BME280;2386;42.138;24.746;2022-10-18T01:16:38;101233.56;;;9.92;88.06
4745;BME280;2386;42.138;24.746;2022-10-18T01:22:20;101242.22;;;9.72;90.79
4745;BME280;2386;42.138;24.746;2022-10-18T01:25:05;101240.25;;;9.66;91.61
4745;BME280;2386;42.138;24.746;2022-10-18T01:27:51;101241.78;;;9.54;92.12
4745;BME280;2386;42.138;24.746;2022-10-18T01:32:50;101225.31;;;9.41;93.62
4745;BME280;2386;42.138;24.746;2022-10-18T01:35:32;101236.44;;;9.46;95.66
4745;BME280;2386;42.138;24.746;2022-10-18T01:38:03;101229.16;;;9.46;95.40
4745;BME280;2386;42.138;24.746;2022-10-18T01:40:31;101230.09;;;9.53;94.97
4745;BME280;2386;42.138;24.746;2022-10-18T01:42:58;101223.91;;;9.45;96.26
4745;BME280;2386;42.138;24.746;2022-10-18T01:45:24;101237.00;;;9.56;95.07
4745;BME280;2386;42.138;24.746;2022-10-18T01:47:51;101225.59;;;9.46;95.99
4745;BME280;2386;42.138;24.746;2022-10-18T01:50:28;101225.34;;;9.55;95.49
4745;BME280;2386;42.138;24.746;2022-10-18T01:52:54;101237.31;;;9.61;94.86
4745;BME280;2386;42.138;24.746;2022-10-18T01:55:24;101232.06;;;9.60;94.32
4745;BME280;2386;42.138;24.746;2022-10-18T01:58:17;101216.53;;;9.68;92.52
4745;BME280;2386;42.138;24.746;2022-10-18T02:00:47;101231.94;;;9.68;92.10
4745;BME280;2386;42.138;24.746;2022-10-18T02:03:20;101229.53;;;9.73;91.86
4745;BME280;2386;42.138;24.746;2022-10-18T02:06:09;101217.47;;;9.75;91.14
4745;BME280;2386;42.138;24.746;2022-10-18T02:08:46;101225.16;;;9.57;90.83
4745;BME280;2386;42.138;24.746;2022-10-18T02:11:14;101229.06;;;9.69;89.81
4745;BME280;2386;42.138;24.746;2022-10-18T02:14:08;101221.59;;;9.71;89.78
4745;BME280;2386;42.138;24.746;2022-10-18T02:16:48;101212.81;;;9.69;89.36
4745;BME280;2386;42.138;24.746;2022-10-18T02:19:19;101211.41;;;9.73;87.78
4745;BME280;2386;42.138;24.746;2022-10-18T02:21:50;101213.66;;;9.70;89.01
4745;BME280;2386;42.138;24.746;2022-10-18T02:24:18;101187.69;;;9.46;89.89
4745;BME280;2386;42.138;24.746;2022-10-18T02:26:45;101212.63;;;9.56;87.08
4745;BME280;2386;42.138;24.746;2022-10-18T02:29:11;101211.31;;;9.67;88.85
4745;BME280;2386;42.138;24.746;2022-10-18T02:31:46;101209.19;;;9.62;88.42
4745;BME280;2386;42.138;24.746;2022-10-18T02:34:24;101199.94;;;9.57;89.56
4745;BME280;2386;42.138;24.746;2022-10-18T02:36:56;101211.13;;;9.68;88.65
4745;BME280;2386;42.138;24.746;2022-10-18T02:39:27;101207.66;;;9.45;88.89
4745;BME280;2386;42.138;24.746;2022-10-18T02:41:54;101217.09;;;9.49;89.75
4745;BME280;2386;42.138;24.746;2022-10-18T02:44:20;101211.13;;;9.53;88.60
4745;BME280;2386;42.138;24.746;2022-10-18T02:46:46;101227.78;;;9.65;87.40
4745;BME280;2386;42.138;24.746;2022-10-18T02:49:12;101204.78;;;9.61;87.78
4745;BME280;2386;42.138;24.746;2022-10-18T02:51:37;101228.03;;;9.55;88.08
4745;BME280;2386;42.138;24.746;2022-10-18T02:54:03;101218.34;;;9.61;86.75
4745;BME280;2386;42.138;24.746;2022-10-18T02:56:28;101231.97;;;9.53;86.76
4745;BME280;2386;42.138;24.746;2022-10-18T02:58:54;101225.88;;;9.51;87.81
4745;BME280;2386;42.138;24.746;2022-10-18T03:01:19;101225.38;;;9.33;87.45
4745;BME280;2386;42.138;24.746;2022-10-18T03:03:45;101227.13;;;9.26;87.54
4745;BME280;2386;42.138;24.746;2022-10-18T03:06:10;101223.97;;;9.37;88.15
4745;BME280;2386;42.138;24.746;2022-10-18T03:08:35;101227.91;;;9.34;87.47
4745;BME280;2386;42.138;24.746;2022-10-18T03:11:01;101229.28;;;9.30;88.69
4745;BME280;2386;42.138;24.746;2022-10-18T03:13:26;101228.16;;;9.25;88.92
4745;BME280;2386;42.138;24.746;2022-10-18T03:15:52;101233.88;;;9.30;86.77
4745;BME280;2386;42.138;24.746;2022-10-18T03:18:17;101225.66;;;9.38;86.16
4745;BME280;2386;42.138;24.746;2022-10-18T03:20:43;101233.44;;;9.41;85.95
4745;BME280;2386;42.138;24.746;2022-10-18T03:23:08;101236.50;;;9.38;86.19
4745;BME280;2386;42.138;24.746;2022-10-18T03:25:34;101237.56;;;9.51;85.65
4745;BME280;2386;42.138;24.746;2022-10-18T03:27:59;101236.50;;;9.38;87.31
4745;BME280;2386;42.138;24.746;2022-10-18T03:30:25;101238.31;;;9.22;88.65
4745;BME280;2386;42.138;24.746;2022-10-18T03:32:50;101236.50;;;9.38;88.62
4745;BME280;2386;42.138;24.746;2022-10-18T03:35:16;101243.97;;;9.36;88.78
4745;BME280;2386;42.138;24.746;2022-10-18T03:37:41;101235.53;;;9.31;87.42
4745;BME280;2386;42.138;24.746;2022-10-18T03:40:07;101231.72;;;9.25;88.86
4745;BME280;2386;42.138;24.746;2022-10-18T03:42:33;101242.09;;;9.36;88.80
4745;BME280;2386;42.138;24.746;2022-10-18T03:44:58;101231.81;;;9.32;88.38
4745;BME280;2386;42.138;24.746;2022-10-18T03:47:24;101234.44;;;9.40;87.45
4745;BME280;2386;42.138;24.746;2022-10-18T03:49:49;101219.31;;;9.31;88.33
4745;BME280;2386;42.138;24.746;2022-10-18T03:52:16;101241.25;;;9.36;89.87
4745;BME280;2386;42.138;24.746;2022-10-18T03:54:41;101251.69;;;9.24;89.95
4745;BME280;2386;42.138;24.746;2022-10-18T03:57:06;101244.03;;;9.28;88.25
4745;BME280;2386;42.138;24.746;2022-10-18T03:59:32;101244.81;;;9.13;89.99
4745;BME280;2386;42.138;24.746;2022-10-18T04:01:57;101250.84;;;9.23;89.52
4745;BME280;2386;42.138;24.746;2022-10-18T04:04:23;101238.09;;;9.09;90.30
4745;BME280;2386;42.138;24.746;2022-10-18T04:06:48;101235.44;;;9.01;92.01
4745;BME280;2386;42.138;24.746;2022-10-18T04:09:15;101239.34;;;9.21;89.10
4745;BME280;2386;42.138;24.746;2022-10-18T04:11:40;101238.31;;;9.22;88.19
4745;BME280;2386;42.138;24.746;2022-10-18T04:14:06;101234.84;;;9.14;89.47
4745;BME280;2386;42.138;24.746;2022-10-18T04:16:31;101222.16;;;9.14;88.87
4745;BME280;2386;42.138;24.746;2022-10-18T04:18:56;101241.03;;;9.00;89.59
4745;BME280;2386;42.138;24.746;2022-10-18T04:21:22;101233.19;;;8.90;90.81
4745;BME280;2386;42.138;24.746;2022-10-18T04:23:48;101236.13;;;8.80;91.47
4745;BME280;2386;42.138;24.746;2022-10-18T04:26:14;101233.72;;;8.85;92.04
4745;BME280;2386;42.138;24.746;2022-10-18T04:28:41;101224.22;;;8.89;91.39
4745;BME280;2386;42.138;24.746;2022-10-18T04:31:08;101234.75;;;8.84;89.25
4745;BME280;2386;42.138;24.746;2022-10-18T04:33:33;101223.31;;;8.74;91.61
4745;BME280;2386;42.138;24.746;2022-10-18T04:35:59;101231.97;;;8.70;90.48
4745;BME280;2386;42.138;24.746;2022-10-18T04:38:24;101227.94;;;8.66;92.71
4745;BME280;2386;42.138;24.746;2022-10-18T04:40:50;101226.81;;;8.83;91.22
4745;BME280;2386;42.138;24.746;2022-10-18T04:43:15;101228.22;;;8.94;90.14
4745;BME280;2386;42.138;24.746;2022-10-18T04:45:44;101234.47;;;8.94;91.28
4745;BME280;2386;42.138;24.746;2022-10-18T04:48:09;101236.75;;;8.91;91.98
4745;BME280;2386;42.138;24.746;2022-10-18T04:50:35;101242.41;;;8.96;91.90
4745;BME280;2386;42.138;24.746;2022-10-18T04:53:00;101237.84;;;8.96;92.50
4745;BME280;2386;42.138;24.746;2022-10-18T04:55:25;101231.78;;;9.17;89.12
4745;BME280;2386;42.138;24.746;2022-10-18T04:57:51;101229.19;;;9.23;88.18
4745;BME280;2386;42.138;24.746;2022-10-18T05:00:17;101224.25;;;9.27;87.41
4745;BME280;2386;42.138;24.746;2022-10-18T05:02:42;101230.44;;;9.36;86.71
4745;BME280;2386;42.138;24.746;2022-10-18T05:05:07;101215.41;;;9.10;87.64
4745;BME280;2386;42.138;24.746;2022-10-18T05:07:34;101227.25;;;9.09;86.70
4745;BME280;2386;42.138;24.746;2022-10-18T05:10:00;101237.38;;;9.15;86.91
4745;BME280;2386;42.138;24.746;2022-10-18T05:12:25;101232.38;;;9.27;87.40
4745;BME280;2386;42.138;24.746;2022-10-18T05:14:50;101236.28;;;9.25;88.00
4745;BME280;2386;42.138;24.746;2022-10-18T05:17:16;101232.19;;;9.29;87.93
4745;BME280;2386;42.138;24.746;2022-10-18T05:19:41;101236.78;;;9.43;86.81
4745;BME280;2386;42.138;24.746;2022-10-18T05:22:07;101239.78;;;9.48;86.93
4745;BME280;2386;42.138;24.746;2022-10-18T05:24:32;101245.06;;;9.64;86.32
4745;BME280;2386;42.138;24.746;2022-10-18T05:26:58;101239.63;;;9.49;85.78
4745;BME280;2386;42.138;24.746;2022-10-18T05:29:23;101239.66;;;9.27;86.50
4745;BME280;2386;42.138;24.746;2022-10-18T05:31:49;101235.28;;;9.40;86.72
4745;BME280;2386;42.138;24.746;2022-10-18T05:34:16;101240.19;;;9.22;89.96
4745;BME280;2386;42.138;24.746;2022-10-18T05:36:41;101236.28;;;9.25;89.65
4745;BME280;2386;42.138;24.746;2022-10-18T05:39:07;101236.81;;;9.20;91.30
4745;BME280;2386;42.138;24.746;2022-10-18T05:41:33;101220.41;;;9.21;91.04
4745;BME280;2386;42.138;24.746;2022-10-18T05:44:03;101230.13;;;9.31;91.78
4745;BME280;2386;42.138;24.746;2022-10-18T05:46:29;101238.56;;;9.36;90.57
4745;BME280;2386;42.138;24.746;2022-10-18T05:48:55;101244.56;;;9.46;91.54
4745;BME280;2386;42.138;24.746;2022-10-18T05:51:20;101230.56;;;9.57;89.65
4745;BME280;2386;42.138;24.746;2022-10-18T05:53:46;101246.75;;;9.65;90.16
4745;BME280;2386;42.138;24.746;2022-10-18T05:56:12;101237.09;;;9.77;89.33
4745;BME280;2386;42.138;24.746;2022-10-18T05:58:40;101229.91;;;9.70;87.44
4745;BME280;2386;42.138;24.746;2022-10-18T06:01:06;101244.97;;;9.87;88.23
4745;BME280;2386;42.138;24.746;2022-10-18T06:03:32;101240.28;;;9.96;89.08
4745;BME280;2386;42.138;24.746;2022-10-18T06:06:07;101240.28;;;9.96;89.24
4745;BME280;2386;42.138;24.746;2022-10-18T06:09:03;101243.09;;;9.87;87.62
4745;BME280;2386;42.138;24.746;2022-10-18T06:11:32;101221.53;;;9.65;89.67
4745;BME280;2386;42.138;24.746;2022-10-18T06:13:57;101236.09;;;9.64;90.95
4745;BME280;2386;42.138;24.746;2022-10-18T06:16:26;101244.31;;;9.85;90.02
4745;BME280;2386;42.138;24.746;2022-10-18T06:18:53;101248.97;;;9.91;90.48
4745;BME280;2386;42.138;24.746;2022-10-18T06:21:42;101247.13;;;9.92;91.94
4745;BME280;2386;42.138;24.746;2022-10-18T06:24:08;101249.34;;;10.03;94.24
4745;BME280;2386;42.138;24.746;2022-10-18T06:26:33;101252.81;;;9.97;95.94
4745;BME280;2386;42.138;24.746;2022-10-18T06:28:58;101251.13;;;9.96;98.24
4745;BME280;2386;42.138;24.746;2022-10-18T06:31:24;101255.44;;;10.05;98.68
4745;BME280;2386;42.138;24.746;2022-10-18T06:33:49;101248.63;;;10.09;97.81
4745;BME280;2386;42.138;24.746;2022-10-18T06:36:19;101260.41;;;10.16;93.66
4745;BME280;2386;42.138;24.746;2022-10-18T06:38:46;101255.34;;;10.13;91.95
4745;BME280;2386;42.138;24.746;2022-10-18T06:41:12;101262.38;;;10.22;90.88
4745;BME280;2386;42.138;24.746;2022-10-18T06:43:38;101255.75;;;10.25;88.91
4745;BME280;2386;42.138;24.746;2022-10-18T06:46:05;101265.75;;;10.24;88.50
4745;BME280;2386;42.138;24.746;2022-10-18T07:05:30;101250.50;;;10.95;83.26
4745;BME280;2386;42.138;24.746;2022-10-18T07:07:56;101249.22;;;11.12;81.91
4745;BME280;2386;42.138;24.746;2022-10-18T07:10:22;101239.25;;;11.19;80.08
4745;BME280;2386;42.138;24.746;2022-10-18T07:12:48;101241.69;;;11.14;80.08
4745;BME280;2386;42.138;24.746;2022-10-18T07:15:13;101248.41;;;11.18;80.62
4745;BME280;2386;42.138;24.746;2022-10-18T07:17:38;101246.53;;;11.40;80.30
4745;BME280;2386;42.138;24.746;2022-10-18T07:20:04;101238.69;;;11.52;79.74
4745;BME280;2386;42.138;24.746;2022-10-18T07:22:29;101227.03;;;11.58;79.62
4745;BME280;2386;42.138;24.746;2022-10-18T07:24:55;101232.13;;;11.68;79.92
4745;BME280;2386;42.138;24.746;2022-10-18T07:27:20;101227.06;;;11.65;78.79
4745;BME280;2386;42.138;24.746;2022-10-18T07:29:46;101220.25;;;11.75;78.32
4745;BME280;2386;42.138;24.746;2022-10-18T07:32:13;101223.28;;;11.87;78.70
4745;BME280;2386;42.138;24.746;2022-10-18T07:34:38;101219.09;;;11.91;77.25
4745;BME280;2386;42.138;24.746;2022-10-18T07:37:03;101215.38;;;11.99;77.52
4745;BME280;2386;42.138;24.746;2022-10-18T07:39:29;101209.56;;;12.08;76.62
4745;BME280;2386;42.138;24.746;2022-10-18T07:41:54;101200.19;;;12.11;76.26
4745;BME280;2386;42.138;24.746;2022-10-18T07:44:20;101205.28;;;12.27;75.95
4745;BME280;2386;42.138;24.746;2022-10-18T07:46:45;101214.75;;;12.38;75.88
4745;BME280;2386;42.138;24.746;2022-10-18T07:49:11;101202.59;;;12.40;75.24
4745;BME280;2386;42.138;24.746;2022-10-18T07:51:36;101191.34;;;12.50;74.70
4745;BME280;2386;42.138;24.746;2022-10-18T07:54:01;101188.84;;;12.55;74.74
4745;BME280;2386;42.138;24.746;2022-10-18T07:56:27;101186.53;;;12.59;74.35
4745;BME280;2386;42.138;24.746;2022-10-18T07:58:54;101184.47;;;12.74;73.82
4745;BME280;2386;42.138;24.746;2022-10-18T08:01:22;101180.69;;;12.75;74.24
4745;BME280;2386;42.138;24.746;2022-10-18T08:03:48;101192.66;;;12.94;74.43
4745;BME280;2386;42.138;24.746;2022-10-18T08:06:15;101178.66;;;13.03;74.65
4745;BME280;2386;42.138;24.746;2022-10-18T08:08:42;101174.44;;;13.07;72.49
4745;BME280;2386;42.138;24.746;2022-10-18T08:11:15;101173.41;;;13.15;72.59
4745;BME280;2386;42.138;24.746;2022-10-18T08:13:41;101166.94;;;13.23;72.91
4745;BME280;2386;42.138;24.746;2022-10-18T08:16:16;101163.59;;;13.34;72.40
4745;BME280;2386;42.138;24.746;2022-10-18T08:18:42;101153.91;;;13.38;72.04
4745;BME280;2386;42.138;24.746;2022-10-18T08:21:09;101154.94;;;13.50;71.39
4745;BME280;2386;42.138;24.746;2022-10-18T08:23:36;101154.06;;;13.69;70.98
4745;BME280;2386;42.138;24.746;2022-10-18T08:26:07;101152.78;;;13.78;71.01
4745;BME280;2386;42.138;24.746;2022-10-18T08:28:37;101154.22;;;13.88;69.93
4745;BME280;2386;42.138;24.746;2022-10-18T08:31:06;101152.53;;;13.93;69.67
4745;BME280;2386;42.138;24.746;2022-10-18T08:33:32;101146.00;;;14.01;69.25
4745;BME280;2386;42.138;24.746;2022-10-18T08:36:01;101141.97;;;14.10;69.66
4745;BME280;2386;42.138;24.746;2022-10-18T08:38:31;101137.94;;;14.19;69.02
4745;BME280;2386;42.138;24.746;2022-10-18T08:46:31;101118.31;;;14.35;68.12
4745;BME280;2386;42.138;24.746;2022-10-18T08:48:58;101119.94;;;14.50;67.19
4745;BME280;2386;42.138;24.746;2022-10-18T08:51:39;101120.31;;;14.60;66.24
4745;BME280;2386;42.138;24.746;2022-10-18T08:54:13;101106.44;;;14.61;66.97
4745;BME280;2386;42.138;24.746;2022-10-18T08:56:48;101104.25;;;14.70;66.80
4745;BME280;2386;42.138;24.746;2022-10-18T08:59:19;101105.91;;;14.77;66.99
4745;BME280;2386;42.138;24.746;2022-10-18T09:10:55;101101.41;;;15.08;68.74
4745;BME280;2386;42.138;24.746;2022-10-18T09:15:57;101077.97;;;15.19;68.63
4745;BME280;2386;42.138;24.746;2022-10-18T09:18:56;101084.44;;;15.24;67.66
4745;BME280;2386;42.138;24.746;2022-10-18T09:21:52;101082.47;;;15.31;66.73
4745;BME280;2386;42.138;24.746;2022-10-18T09:24:25;101079.28;;;15.34;67.33
4745;BME280;2386;42.138;24.746;2022-10-18T09:26:57;101067.69;;;15.39;68.87
4745;BME280;2386;42.138;24.746;2022-10-18T09:32:31;101070.13;;;15.47;67.89
4745;BME280;2386;42.138;24.746;2022-10-18T09:35:41;101055.06;;;15.56;67.33
4745;BME280;2386;42.138;24.746;2022-10-18T09:38:15;101055.22;;;15.61;65.41
4745;BME280;2386;42.138;24.746;2022-10-18T09:40:51;101051.25;;;15.75;65.27
4745;BME280;2386;42.138;24.746;2022-10-18T09:43:23;101036.38;;;15.71;64.92
4745;BME280;2386;42.138;24.746;2022-10-18T09:45:52;101036.91;;;15.80;65.04
4745;BME280;2386;42.138;24.746;2022-10-18T09:48:28;101040.75;;;15.91;65.03
4745;BME280;2386;42.138;24.746;2022-10-18T09:51:05;101040.28;;;15.94;63.14
4745;BME280;2386;42.138;24.746;2022-10-18T09:56:45;101030.25;;;16.06;62.60
4745;BME280;2386;42.138;24.746;2022-10-18T10:00:04;101028.25;;;16.13;62.34
4745;BME280;2386;42.138;24.746;2022-10-18T10:02:13;101011.78;;;16.01;62.78
4745;BME280;2386;42.138;24.746;2022-10-18T10:04:39;100989.03;;;16.01;62.50
4745;BME280;2386;42.138;24.746;2022-10-18T10:07:08;100995.38;;;16.13;62.41
4745;BME280;2386;42.138;24.746;2022-10-18T10:13:14;100980.91;;;16.24;64.26
4745;BME280;2386;42.138;24.746;2022-10-18T10:15:45;100979.72;;;16.32;62.49
4745;BME280;2386;42.138;24.746;2022-10-18T10:18:41;100980.19;;;16.40;62.21
4745;BME280;2386;42.138;24.746;2022-10-18T10:21:07;100976.25;;;16.25;60.74
4745;BME280;2386;42.138;24.746;2022-10-18T10:23:54;100965.19;;;16.31;60.29
4745;BME280;2386;42.138;24.746;2022-10-18T10:28:49;100955.44;;;16.47;61.77
4745;BME280;2386;42.138;24.746;2022-10-18T10:31:32;100953.28;;;16.49;60.49
4745;BME280;2386;42.138;24.746;2022-10-18T10:36:29;100940.44;;;16.61;58.34
4745;BME280;2386;42.138;24.746;2022-10-18T10:41:30;100923.06;;;16.79;58.87
4745;BME280;2386;42.138;24.746;2022-10-18T10:43:56;100911.63;;;16.82;60.23
4745;BME280;2386;42.138;24.746;2022-10-18T10:46:22;100901.84;;;16.86;59.61
4745;BME280;2386;42.138;24.746;2022-10-18T10:48:56;100898.53;;;16.84;59.60
4745;BME280;2386;42.138;24.746;2022-10-18T10:51:36;100892.91;;;16.91;60.19
4745;BME280;2386;42.138;24.746;2022-10-18T10:54:16;100885.75;;;17.01;59.41
4745;BME280;2386;42.138;24.746;2022-10-18T10:57:12;100883.00;;;17.01;56.72
4745;BME280;2386;42.138;24.746;2022-10-18T10:59:46;100867.72;;;17.05;57.03
4745;BME280;2386;42.138;24.746;2022-10-18T11:04:38;100869.16;;;17.08;54.73
4745;BME280;2386;42.138;24.746;2022-10-18T11:07:33;100854.44;;;17.14;55.29
4745;BME280;2386;42.138;24.746;2022-10-18T11:10:05;100845.13;;;17.15;56.89
4745;BME280;2386;42.138;24.746;2022-10-18T11:12:38;100853.72;;;17.19;56.34
4745;BME280;2386;42.138;24.746;2022-10-18T11:17:41;100836.88;;;17.27;55.64
4745;BME280;2386;42.138;24.746;2022-10-18T11:25:15;100814.00;;;17.21;53.31
4745;BME280;2386;42.138;24.746;2022-10-18T11:28:03;100815.28;;;17.30;52.92
4745;BME280;2386;42.138;24.746;2022-10-18T11:36:37;100800.50;;;17.48;47.36
4745;BME280;2386;42.138;24.746;2022-10-18T11:39:09;100794.78;;;17.50;47.05
4745;BME280;2386;42.138;24.746;2022-10-18T11:42:32;100786.88;;;17.53;47.75
4745;BME280;2386;42.138;24.746;2022-10-18T11:45:10;100784.22;;;17.58;46.47
4745;BME280;2386;42.138;24.746;2022-10-18T11:47:50;100776.59;;;17.60;44.92
4745;BME280;2386;42.138;24.746;2022-10-18T11:50:48;100771.69;;;17.62;46.29
4745;BME280;2386;42.138;24.746;2022-10-18T11:53:41;100770.72;;;17.68;46.21
4745;BME280;2386;42.138;24.746;2022-10-18T12:01:42;100756.81;;;17.75;45.54
4745;BME280;2386;42.138;24.746;2022-10-18T12:04:26;100751.34;;;17.75;46.02
4745;BME280;2386;42.138;24.746;2022-10-18T12:06:56;100749.50;;;17.81;45.45
4745;BME280;2386;42.138;24.746;2022-10-18T12:09:29;100735.69;;;17.76;44.59
4745;BME280;2386;42.138;24.746;2022-10-18T12:12:17;100737.63;;;17.75;46.07
4745;BME280;2386;42.138;24.746;2022-10-18T12:14:48;100726.81;;;17.68;46.02
4745;BME280;2386;42.138;24.746;2022-10-18T12:17:21;100726.38;;;17.77;44.60
4745;BME280;2386;42.138;24.746;2022-10-18T12:19:50;100726.38;;;17.77;44.69
4745;BME280;2386;42.138;24.746;2022-10-18T12:22:22;100717.06;;;17.78;43.91
4745;BME280;2386;42.138;24.746;2022-10-18T12:24:50;100716.56;;;17.81;43.93
4745;BME280;2386;42.138;24.746;2022-10-18T12:27:16;100706.34;;;17.76;44.21
4745;BME280;2386;42.138;24.746;2022-10-18T12:29:47;100713.75;;;17.76;44.77
4745;BME280;2386;42.138;24.746;2022-10-18T12:32:18;100702.78;;;17.76;44.22
4745;BME280;2386;42.138;24.746;2022-10-18T12:34:53;100695.63;;;17.75;40.76
4745;BME280;2386;42.138;24.746;2022-10-18T12:42:28;100693.66;;;17.92;41.42
4745;BME280;2386;42.138;24.746;2022-10-18T12:45:16;100688.66;;;17.89;42.23
4745;BME280;2386;42.138;24.746;2022-10-18T12:47:42;100683.09;;;17.84;42.51
4745;BME280;2386;42.138;24.746;2022-10-18T12:50:31;100688.09;;;17.87;41.63
4745;BME280;2386;42.138;24.746;2022-10-18T12:53:03;100686.00;;;17.94;37.62
4745;BME280;2386;42.138;24.746;2022-10-18T12:55:44;100681.72;;;18.03;39.65
4745;BME280;2386;42.138;24.746;2022-10-18T12:58:30;100681.22;;;18.06;40.51
4745;BME280;2386;42.138;24.746;2022-10-18T13:01:05;100674.19;;;17.93;41.04
4745;BME280;2386;42.138;24.746;2022-10-18T13:03:39;100681.91;;;17.96;40.87
4745;BME280;2386;42.138;24.746;2022-10-18T13:06:05;100673.53;;;17.86;40.52
4745;BME280;2386;42.138;24.746;2022-10-18T13:18:51;100657.69;;;17.71;34.74
4745;BME280;2386;42.138;24.746;2022-10-18T13:24:31;100648.47;;;17.78;33.58
4745;BME280;2386;42.138;24.746;2022-10-18T13:35:48;100644.75;;;17.89;35.04
4745;BME280;2386;42.138;24.746;2022-10-18T13:44:10;100633.06;;;17.77;35.51
4745;BME280;2386;42.138;24.746;2022-10-18T13:58:03;100617.03;;;17.68;36.09
4745;BME280;2386;42.138;24.746;2022-10-18T14:06:09;100611.38;;;17.75;36.14
4745;BME280;2386;42.138;24.746;2022-10-18T14:11:39;100597.97;;;17.79;36.91
4745;BME280;2386;42.138;24.746;2022-10-18T14:14:41;100600.22;;;17.82;36.87
4745;BME280;2386;42.138;24.746;2022-10-18T14:17:19;100594.13;;;17.80;36.75
4745;BME280;2386;42.138;24.746;2022-10-18T14:22:23;100584.84;;;17.86;36.60
4745;BME280;2386;42.138;24.746;2022-10-18T14:24:57;100585.94;;;17.85;36.58
4745;BME280;2386;42.138;24.746;2022-10-18T14:27:25;100579.94;;;17.88;36.50
4745;BME280;2386;42.138;24.746;2022-10-18T14:30:17;100579.69;;;17.89;37.25
4745;BME280;2386;42.138;24.746;2022-10-18T14:32:50;100576.13;;;17.89;37.02
4745;BME280;2386;42.138;24.746;2022-10-18T14:35:23;100572.78;;;17.87;37.24
4745;BME280;2386;42.138;24.746;2022-10-18T14:37:52;100573.31;;;17.84;37.35
4745;BME280;2386;42.138;24.746;2022-10-18T14:40:34;100571.66;;;17.83;37.43
4745;BME280;2386;42.138;24.746;2022-10-18T14:43:02;100557.38;;;17.81;37.32
4745;BME280;2386;42.138;24.746;2022-10-18T14:45:28;100562.22;;;17.73;37.93
4745;BME280;2386;42.138;24.746;2022-10-18T14:47:54;100554.00;;;17.73;38.48
4745;BME280;2386;42.138;24.746;2022-10-18T14:50:25;100555.34;;;17.71;38.42
4745;BME280;2386;42.138;24.746;2022-10-18T14:52:51;100548.09;;;17.65;39.19
4745;BME280;2386;42.138;24.746;2022-10-18T14:55:23;100557.75;;;17.67;39.51
4745;BME280;2386;42.138;24.746;2022-10-18T14:57:51;100549.34;;;17.57;39.81
4745;BME280;2386;42.138;24.746;2022-10-18T15:00:24;100541.63;;;17.54;39.45
4745;BME280;2386;42.138;24.746;2022-10-18T15:02:53;100550.44;;;17.56;39.42
4745;BME280;2386;42.138;24.746;2022-10-18T15:05:22;100542.97;;;17.52;39.80
4745;BME280;2386;42.138;24.746;2022-10-18T15:07:50;100549.88;;;17.54;40.24
4745;BME280;2386;42.138;24.746;2022-10-18T15:10:25;100542.31;;;17.45;40.62
4745;BME280;2386;42.138;24.746;2022-10-18T15:12:52;100536.75;;;17.39;40.12
4745;BME280;2386;42.138;24.746;2022-10-18T15:15:24;100527.69;;;17.39;40.75
4745;BME280;2386;42.138;24.746;2022-10-18T15:17:52;100544.16;;;17.39;40.74
4745;BME280;2386;42.138;24.746;2022-10-18T15:20:25;100548.00;;;17.38;41.12
4745;BME280;2386;42.138;24.746;2022-10-18T15:22:52;100539.88;;;17.26;41.53
4745;BME280;2386;42.138;24.746;2022-10-18T15:25:22;100542.34;;;17.28;41.39
4745;BME280;2386;42.138;24.746;2022-10-18T15:27:51;100529.56;;;17.17;42.16
4745;BME280;2386;42.138;24.746;2022-10-18T15:30:27;100525.41;;;17.14;42.34
4745;BME280;2386;42.138;24.746;2022-10-18T15:32:59;100532.75;;;17.08;42.07
4745;BME280;2386;42.138;24.746;2022-10-18T15:37:50;100536.50;;;17.02;42.84
4745;BME280;2386;42.138;24.746;2022-10-18T15:42:52;100538.00;;;16.93;43.58
4745;BME280;2386;42.138;24.746;2022-10-18T15:56:02;100539.75;;;16.66;46.90
4745;BME280;2386;42.138;24.746;2022-10-18T16:01:01;100535.16;;;16.55;47.28
4745;BME280;2386;42.138;24.746;2022-10-18T16:03:32;100524.59;;;16.47;48.06